createdAt,value
2019-05-26T00:01:35.931Z,99.90
2019-05-26T00:04:03.287Z,99.90
2019-05-26T00:06:30.627Z,99.90
2019-05-26T00:08:57.848Z,99.90
2019-05-26T00:11:25.094Z,99.90
2019-05-26T00:13:52.850Z,99.90
2019-05-26T00:16:20.174Z,99.90
2019-05-26T00:18:47.528Z,99.90
2019-05-26T00:21:14.825Z,99.90
2019-05-26T00:23:42.165Z,99.90
2019-05-26T00:26:09.483Z,99.90
2019-05-26T00:28:36.718Z,99.90
2019-05-26T00:31:04.060Z,99.90
2019-05-26T00:33:31.401Z,99.90
2019-05-26T00:35:58.679Z,99.90
2019-05-26T00:38:25.911Z,99.90
2019-05-26T00:40:53.156Z,99.90
2019-05-26T00:43:20.435Z,99.90
2019-05-26T00:45:47.830Z,99.90
2019-05-26T00:48:15.119Z,99.90
2019-05-26T00:50:42.433Z,99.90
2019-05-26T00:53:09.736Z,99.90
2019-05-26T00:55:37.075Z,99.90
2019-05-26T00:58:04.395Z,99.90
2019-05-26T01:00:39.724Z,99.90
2019-05-26T01:03:07.052Z,99.90
2019-05-26T01:05:34.281Z,99.90
2019-05-26T01:08:06.372Z,99.90
2019-05-26T01:10:30.723Z,99.90
2019-05-26T01:12:57.963Z,99.90
2019-05-26T01:15:25.227Z,99.90
2019-05-26T01:17:52.500Z,99.90
2019-05-26T01:20:19.839Z,99.90
2019-05-26T01:22:47.101Z,99.90
2019-05-26T01:25:14.573Z,99.90
2019-05-26T01:27:41.813Z,99.90
2019-05-26T01:30:09.499Z,99.90
2019-05-26T01:32:36.916Z,99.90
2019-05-26T01:35:04.623Z,99.90
2019-05-26T01:37:31.918Z,99.90
2019-05-26T01:39:59.245Z,99.90
2019-05-26T01:42:26.586Z,99.90
2019-05-26T01:44:53.820Z,99.90
2019-05-26T01:47:21.049Z,99.90
2019-05-26T01:49:48.298Z,99.90
2019-05-26T01:52:15.532Z,99.90
2019-05-26T01:54:42.771Z,99.90
2019-05-26T01:57:10.028Z,99.90
2019-05-26T01:59:37.269Z,99.90
2019-05-26T02:02:04.517Z,99.90
2019-05-26T02:04:31.791Z,99.90
2019-05-26T02:06:59.127Z,99.90
2019-05-26T02:09:26.406Z,99.90
2019-05-26T02:11:53.716Z,99.90
2019-05-26T02:14:20.936Z,99.90
2019-05-26T02:16:48.187Z,99.90
2019-05-26T02:19:15.424Z,99.90
2019-05-26T02:21:42.760Z,99.90
2019-05-26T02:24:10.084Z,99.90
2019-05-26T02:26:37.407Z,99.90
2019-05-26T02:29:04.661Z,99.90
2019-05-26T02:31:31.991Z,99.90
2019-05-26T02:33:59.340Z,99.90
2019-05-26T02:36:26.598Z,99.90
2019-05-26T02:39:01.896Z,99.90
2019-05-26T02:41:22.964Z,99.90
2019-05-26T02:43:51.490Z,99.90
2019-05-26T02:46:18.727Z,99.90
2019-05-26T02:48:45.953Z,99.90
2019-05-26T02:51:13.196Z,99.90
2019-05-26T02:53:40.584Z,99.90
2019-05-26T02:56:07.927Z,99.90
2019-05-26T02:58:35.178Z,99.90
2019-05-26T03:01:02.942Z,99.90
2019-05-26T03:03:30.268Z,99.90
2019-05-26T03:05:57.680Z,99.90
2019-05-26T03:08:25.574Z,99.90
2019-05-26T03:10:55.382Z,99.90
2019-05-26T03:13:25.105Z,99.90
2019-05-26T03:15:55.315Z,99.90
2019-05-26T03:18:22.995Z,99.90
2019-05-26T03:20:52.529Z,99.90
2019-05-26T03:23:20.172Z,99.90
2019-05-26T03:25:47.893Z,99.90
2019-05-26T03:28:15.204Z,99.90
2019-05-26T03:30:42.454Z,99.90
2019-05-26T03:33:09.788Z,99.90
2019-05-26T03:35:37.032Z,99.90
2019-05-26T03:38:04.264Z,99.90
2019-05-26T03:40:31.552Z,99.90
2019-05-26T03:42:58.880Z,99.90
2019-05-26T03:46:00.540Z,99.90
2019-05-26T03:48:27.892Z,99.90
2019-05-26T03:50:55.159Z,99.90
2019-05-26T03:53:22.443Z,99.90
2019-05-26T03:55:49.662Z,99.90
2019-05-26T03:58:16.910Z,99.90
2019-05-26T04:00:44.151Z,99.90
2019-05-26T04:03:11.394Z,99.90
2019-05-26T04:05:38.780Z,99.90
2019-05-26T04:08:06.029Z,99.90
2019-05-26T04:10:33.341Z,99.90
2019-05-26T04:13:00.627Z,99.90
2019-05-26T04:15:27.920Z,99.90
2019-05-26T04:17:55.348Z,99.90
2019-05-26T04:20:22.593Z,99.90
2019-05-26T04:22:49.863Z,99.90
2019-05-26T04:25:17.119Z,99.90
2019-05-26T04:27:44.482Z,99.90
2019-05-26T04:30:11.848Z,99.90
2019-05-26T04:32:39.157Z,99.90
2019-05-26T04:35:06.517Z,99.90
2019-05-26T04:37:33.754Z,99.90
2019-05-26T04:40:00.997Z,99.90
2019-05-26T04:42:28.241Z,99.90
2019-05-26T04:44:55.494Z,99.90
2019-05-26T04:47:22.841Z,99.90
2019-05-26T04:49:50.173Z,99.90
2019-05-26T04:52:17.464Z,99.90
2019-05-26T04:54:44.815Z,99.90
2019-05-26T04:57:12.140Z,99.90
2019-05-26T04:59:39.468Z,99.90
2019-05-26T05:02:06.707Z,99.90
2019-05-26T05:04:33.944Z,99.90
2019-05-26T05:07:01.194Z,99.90
2019-05-26T05:09:28.448Z,99.90
2019-05-26T05:11:55.667Z,99.90
2019-05-26T05:14:22.888Z,99.90
2019-05-26T05:16:50.149Z,99.90
2019-05-26T05:19:17.416Z,99.90
2019-05-26T05:21:44.656Z,99.90
2019-05-26T05:24:11.859Z,99.90
2019-05-26T05:26:39.152Z,99.90
2019-05-26T05:29:06.383Z,99.90
2019-05-26T05:31:33.603Z,99.90
2019-05-26T05:34:00.857Z,99.90
2019-05-26T05:36:28.172Z,99.90
2019-05-26T05:38:55.401Z,99.90
2019-05-26T05:41:22.675Z,99.90
2019-05-26T05:43:49.958Z,99.90
2019-05-26T05:46:17.623Z,99.90
2019-05-26T05:48:44.999Z,99.90
2019-05-26T05:51:12.259Z,99.90
2019-05-26T05:53:40.510Z,99.90
2019-05-26T05:56:07.859Z,99.90
2019-05-26T05:58:36.174Z,99.90
2019-05-26T06:01:03.505Z,99.90
2019-05-26T06:03:30.786Z,99.90
2019-05-26T06:05:58.159Z,99.90
2019-05-26T06:08:25.579Z,99.90
2019-05-26T06:10:56.275Z,99.90
2019-05-26T06:13:23.690Z,99.90
2019-05-26T06:15:50.927Z,99.90
2019-05-26T06:18:18.292Z,99.90
2019-05-26T06:20:45.596Z,99.90
2019-05-26T06:23:13.120Z,99.90
2019-05-26T06:25:40.503Z,99.90
2019-05-26T06:28:07.821Z,99.90
2019-05-26T06:30:35.208Z,99.90
2019-05-26T06:33:02.483Z,99.90
2019-05-26T06:35:32.575Z,99.90
2019-05-26T06:37:58.995Z,99.90
2019-05-26T06:40:26.432Z,99.90
2019-05-26T06:42:53.818Z,99.90
2019-05-26T06:45:21.251Z,99.90
2019-05-26T06:47:49.184Z,99.90
2019-05-26T06:50:17.875Z,99.90
2019-05-26T06:52:45.248Z,99.90
2019-05-26T06:55:12.824Z,99.90
2019-05-26T06:57:40.219Z,99.90
2019-05-26T07:00:08.087Z,99.90
2019-05-26T07:02:35.523Z,99.90
2019-05-26T07:05:03.704Z,99.90
2019-05-26T07:07:31.100Z,99.90
2019-05-26T07:09:58.514Z,99.90
2019-05-26T07:12:25.984Z,99.90
2019-05-26T07:14:53.310Z,99.90
2019-05-26T07:17:20.863Z,99.90
2019-05-26T07:19:48.175Z,99.90
2019-05-26T07:22:15.480Z,99.90
2019-05-26T07:24:42.815Z,99.90
2019-05-26T07:27:10.324Z,99.90
2019-05-26T07:29:37.775Z,99.90
2019-05-26T07:32:05.516Z,99.90
2019-05-26T07:34:32.781Z,99.90
2019-05-26T07:37:00.106Z,99.90
2019-05-26T07:39:27.440Z,99.90
2019-05-26T07:42:09.212Z,99.90
2019-05-26T07:44:24.056Z,99.90
2019-05-26T07:46:51.434Z,99.90
2019-05-26T07:49:18.835Z,99.90
2019-05-26T07:51:46.501Z,99.90
2019-05-26T07:54:25.251Z,99.90
2019-05-26T07:56:43.150Z,99.90
2019-05-26T07:59:10.429Z,99.90
2019-05-26T08:01:37.730Z,99.90
2019-05-26T08:04:05.081Z,99.90
2019-05-26T08:06:32.447Z,99.90
2019-05-26T08:09:09.087Z,99.90
2019-05-26T08:11:36.484Z,99.90
2019-05-26T08:14:03.821Z,99.90
2019-05-26T08:16:31.617Z,99.90
2019-05-26T08:18:58.996Z,99.90
2019-05-26T08:21:26.442Z,99.90
2019-05-26T08:23:53.770Z,99.90
2019-05-26T08:26:21.658Z,99.90
2019-05-26T08:28:49.047Z,99.90
2019-05-26T08:31:16.488Z,99.90
2019-05-26T08:33:44.311Z,99.90
2019-05-26T08:36:11.559Z,99.90
2019-05-26T08:38:39.040Z,99.90
2019-05-26T08:41:07.096Z,99.90
2019-05-26T08:43:34.564Z,99.90
2019-05-26T08:46:01.902Z,99.90
2019-05-26T08:48:29.334Z,99.90
2019-05-26T08:50:56.588Z,99.90
2019-05-26T08:53:23.952Z,99.90
2019-05-26T08:55:51.265Z,99.90
2019-05-26T08:58:18.612Z,99.90
2019-05-26T09:00:45.960Z,99.90
2019-05-26T09:03:13.392Z,99.90
2019-05-26T09:05:40.993Z,99.90
2019-05-26T09:08:08.452Z,99.90
2019-05-26T09:10:35.886Z,99.90
2019-05-26T09:13:03.211Z,99.90
2019-05-26T09:15:30.467Z,99.90
2019-05-26T09:17:57.940Z,99.90
2019-05-26T09:20:25.480Z,99.90
2019-05-26T09:22:52.743Z,99.90
2019-05-26T09:25:20.052Z,99.90
2019-05-26T09:27:47.446Z,99.90
2019-05-26T09:30:15.889Z,99.90
2019-05-26T09:32:43.188Z,99.90
2019-05-26T09:35:11.135Z,99.90
2019-05-26T09:37:38.457Z,99.90
2019-05-26T09:40:06.347Z,99.90
2019-05-26T09:42:33.755Z,99.90
2019-05-26T09:45:02.067Z,99.90
2019-05-26T09:47:31.675Z,99.90
2019-05-26T09:49:59.090Z,99.90
2019-05-26T09:52:27.312Z,99.90
2019-05-26T09:54:54.623Z,99.90
2019-05-26T09:57:21.924Z,99.90
2019-05-26T09:59:49.218Z,99.90
2019-05-26T10:02:16.617Z,99.90
2019-05-26T10:04:44.076Z,99.90
2019-05-26T10:07:24.430Z,99.90
2019-05-26T10:09:51.840Z,99.90
2019-05-26T10:12:19.908Z,99.90
2019-05-26T10:14:47.874Z,99.90
2019-05-26T10:17:15.352Z,99.90
2019-05-26T10:19:42.755Z,99.90
2019-05-26T10:22:10.166Z,99.90
2019-05-26T10:24:37.420Z,99.90
2019-05-26T10:27:04.876Z,99.90
2019-05-26T10:29:32.134Z,99.90
2019-05-26T10:31:59.425Z,99.90
2019-05-26T10:34:26.696Z,99.90
2019-05-26T10:36:54.131Z,99.90
2019-05-26T10:39:21.458Z,99.90
2019-05-26T10:41:48.888Z,99.90
2019-05-26T10:44:16.392Z,99.90
2019-05-26T10:46:43.714Z,99.90
2019-05-26T10:49:12.161Z,99.90
2019-05-26T10:51:39.512Z,99.90
2019-05-26T10:54:06.953Z,99.90
2019-05-26T10:56:34.412Z,99.90
2019-05-26T10:59:01.714Z,99.90
2019-05-26T11:01:28.979Z,99.90
2019-05-26T11:03:56.259Z,99.90
2019-05-26T11:06:23.688Z,99.90
2019-05-26T11:08:51.044Z,99.90
2019-05-26T11:11:18.309Z,99.90
2019-05-26T11:13:45.596Z,99.90
2019-05-26T11:16:12.864Z,99.90
2019-05-26T11:18:40.132Z,99.90
2019-05-26T11:21:07.359Z,99.90
2019-05-26T11:23:34.623Z,99.90
2019-05-26T11:26:01.921Z,99.90
2019-05-26T11:28:29.230Z,99.90
2019-05-26T11:30:56.659Z,99.90
2019-05-26T11:33:23.956Z,99.90
2019-05-26T11:35:51.187Z,99.90
2019-05-26T11:38:18.420Z,99.90
2019-05-26T11:40:45.801Z,99.90
2019-05-26T11:43:16.919Z,99.90
2019-05-26T11:45:42.296Z,99.90
2019-05-26T11:48:09.815Z,99.90
2019-05-26T11:50:37.177Z,99.90
2019-05-26T11:53:07.372Z,99.90
2019-05-26T11:55:34.757Z,99.90
2019-05-26T11:58:02.131Z,99.80
2019-05-26T12:00:29.375Z,97.90
2019-05-26T12:02:56.644Z,98.00
2019-05-26T12:05:25.779Z,97.60
2019-05-26T12:07:53.023Z,97.40
2019-05-26T12:10:20.459Z,96.90
2019-05-26T12:12:47.710Z,96.20
2019-05-26T12:15:15.786Z,94.10
2019-05-26T12:17:43.222Z,94.40
2019-05-26T12:20:10.848Z,94.70
2019-05-26T12:22:38.084Z,96.50
2019-05-26T12:25:05.760Z,96.60
2019-05-26T12:27:33.278Z,96.80
2019-05-26T12:30:00.634Z,97.20
2019-05-26T12:32:27.895Z,98.50
2019-05-26T12:34:55.163Z,98.20
2019-05-26T12:37:22.463Z,97.30
2019-05-26T12:39:49.691Z,97.10
2019-05-26T12:42:17.314Z,96.80
2019-05-26T12:44:49.732Z,96.50
2019-05-26T12:47:13.900Z,94.80
2019-05-26T12:49:41.164Z,95.10
2019-05-26T12:52:08.520Z,95.50
2019-05-26T12:54:35.788Z,95.80
2019-05-26T12:57:03.120Z,96.10
2019-05-26T12:59:30.395Z,95.90
2019-05-26T13:01:57.655Z,95.80
2019-05-26T13:04:24.931Z,95.60
2019-05-26T13:06:52.282Z,95.50
2019-05-26T13:09:19.666Z,95.50
2019-05-26T13:11:47.004Z,95.60
2019-05-26T13:14:14.309Z,95.90
2019-05-26T13:16:41.704Z,95.80
2019-05-26T13:19:09.024Z,95.80
2019-05-26T13:21:36.305Z,95.70
2019-05-26T13:24:04.203Z,94.80
2019-05-26T13:26:31.770Z,94.90
2019-05-26T13:28:59.158Z,94.40
2019-05-26T13:31:26.480Z,94.40
2019-05-26T13:33:53.875Z,94.60
2019-05-26T13:36:21.160Z,93.90
2019-05-26T13:38:48.475Z,93.70
2019-05-26T13:41:15.759Z,93.70
2019-05-26T13:43:43.121Z,93.20
2019-05-26T13:46:10.480Z,93.20
2019-05-26T13:48:37.791Z,92.50
2019-05-26T13:51:05.987Z,93.30
2019-05-26T13:53:33.227Z,93.50
2019-05-26T13:56:00.472Z,93.80
2019-05-26T13:58:27.724Z,94.90
2019-05-26T14:00:55.171Z,94.90
2019-05-26T14:03:25.932Z,94.20
2019-05-26T14:05:53.858Z,94.30
2019-05-26T14:08:23.393Z,94.10
2019-05-26T14:10:50.981Z,94.30
2019-05-26T14:13:18.607Z,94.90
2019-05-26T14:15:47.187Z,95.40
2019-05-26T14:18:17.510Z,95.50
2019-05-26T14:20:45.809Z,95.90
2019-05-26T14:23:13.127Z,96.00
2019-05-26T14:25:40.507Z,96.00
2019-05-26T14:28:08.169Z,96.10
2019-05-26T14:30:36.063Z,96.00
2019-05-26T14:33:04.015Z,95.70
2019-05-26T14:35:31.436Z,96.10
2019-05-26T14:37:58.694Z,95.80
2019-05-26T14:40:26.059Z,96.40
2019-05-26T14:42:53.542Z,96.60
2019-05-26T14:45:21.017Z,95.80
2019-05-26T14:47:48.516Z,95.80
2019-05-26T14:50:16.984Z,95.10
2019-05-26T14:52:45.481Z,94.80
2019-05-26T14:55:13.591Z,93.90
2019-05-26T14:57:41.209Z,93.80
2019-05-26T15:00:10.362Z,92.20
2019-05-26T15:02:37.808Z,92.00
2019-05-26T15:05:06.970Z,91.70
2019-05-26T15:07:35.067Z,92.00
2019-05-26T15:10:02.442Z,92.20
2019-05-26T15:12:29.794Z,92.90
2019-05-26T15:14:57.128Z,94.70
2019-05-26T15:17:25.366Z,95.30
2019-05-26T15:19:52.810Z,95.50
2019-05-26T15:22:20.162Z,95.60
2019-05-26T15:24:47.635Z,96.40
2019-05-26T15:27:15.035Z,96.40
2019-05-26T15:29:42.384Z,96.80
2019-05-26T15:32:09.787Z,97.00
2019-05-26T15:34:37.177Z,97.00
2019-05-26T15:37:04.587Z,97.80
2019-05-26T15:39:31.853Z,97.90
2019-05-26T15:41:59.214Z,97.80
2019-05-26T15:44:26.630Z,97.80
2019-05-26T15:46:53.983Z,97.80
2019-05-26T15:49:21.260Z,97.40
2019-05-26T15:51:48.583Z,97.40
2019-05-26T15:54:15.860Z,97.40
2019-05-26T15:56:45.056Z,98.20
2019-05-26T15:59:12.432Z,97.50
2019-05-26T16:01:39.795Z,98.00
2019-05-26T16:04:07.193Z,98.30
2019-05-26T16:06:34.619Z,98.30
2019-05-26T16:09:01.940Z,98.60
2019-05-26T16:11:29.328Z,98.40
2019-05-26T16:13:56.598Z,98.70
2019-05-26T16:16:32.475Z,98.80
2019-05-26T16:18:53.171Z,99.00
2019-05-26T16:21:27.889Z,99.00
2019-05-26T16:23:49.842Z,98.90
2019-05-26T16:26:17.279Z,98.20
2019-05-26T16:28:44.607Z,98.30
2019-05-26T16:31:12.409Z,98.10
2019-05-26T16:33:39.823Z,98.30
2019-05-26T16:36:07.187Z,98.40
2019-05-26T16:38:34.546Z,98.40
2019-05-26T16:41:01.835Z,98.40
2019-05-26T16:43:29.060Z,98.50
2019-05-26T16:45:56.691Z,98.60
2019-05-26T16:48:24.197Z,98.60
2019-05-26T16:50:51.597Z,99.00
2019-05-26T16:53:19.132Z,99.20
2019-05-26T16:55:46.475Z,99.30
2019-05-26T16:58:13.803Z,99.40
2019-05-26T17:00:41.119Z,99.60
2019-05-26T17:03:08.566Z,99.70
2019-05-26T17:05:36.035Z,99.70
2019-05-26T17:08:03.371Z,99.90
2019-05-26T17:10:30.839Z,99.80
2019-05-26T17:13:07.369Z,99.40
2019-05-26T17:15:35.989Z,99.40
2019-05-26T17:18:03.523Z,99.40
2019-05-26T17:20:33.736Z,99.60
2019-05-26T17:23:03.267Z,99.60
2019-05-26T17:25:30.600Z,99.70
2019-05-26T17:27:58.066Z,99.70
2019-05-26T17:30:27.322Z,99.90
2019-05-26T17:32:54.590Z,99.90
2019-05-26T17:35:21.900Z,99.90
2019-05-26T17:37:49.156Z,99.90
2019-05-26T17:40:16.495Z,99.90
2019-05-26T17:42:43.789Z,99.90
2019-05-26T17:45:11.257Z,99.90
2019-05-26T17:47:39.540Z,99.90
2019-05-26T17:50:07.625Z,99.90
2019-05-26T17:52:34.928Z,99.90
2019-05-26T17:55:02.201Z,99.90
2019-05-26T17:57:29.572Z,99.90
2019-05-26T17:59:56.835Z,99.90
2019-05-26T18:02:24.121Z,99.90
2019-05-26T18:04:52.595Z,99.90
2019-05-26T18:07:20.457Z,99.90
2019-05-26T18:09:48.646Z,99.90
2019-05-26T18:12:16.291Z,99.90
2019-05-26T18:14:45.935Z,99.90
2019-05-26T18:17:13.319Z,99.90
2019-05-26T18:19:40.616Z,99.90
2019-05-26T18:22:07.907Z,99.90
2019-05-26T18:24:35.183Z,99.90
2019-05-26T18:27:04.796Z,99.90
2019-05-26T18:29:32.083Z,99.90
2019-05-26T18:31:59.457Z,99.90
2019-05-26T18:34:26.831Z,99.90
2019-05-26T18:36:54.107Z,99.90
2019-05-26T18:39:21.368Z,99.90
2019-05-26T18:41:48.665Z,99.90
2019-05-26T18:44:15.968Z,99.90
2019-05-26T18:46:43.268Z,99.90
2019-05-26T18:49:10.573Z,99.90
2019-05-26T18:51:37.905Z,99.90
2019-05-26T18:54:08.345Z,99.90
2019-05-26T18:56:35.784Z,99.90
2019-05-26T18:59:03.275Z,99.90
2019-05-26T19:01:30.587Z,99.90
2019-05-26T19:03:57.871Z,99.90
2019-05-26T19:06:25.128Z,99.90
2019-05-26T19:08:52.391Z,99.90
2019-05-26T19:11:19.857Z,99.90
2019-05-26T19:13:47.257Z,99.90
2019-05-26T19:16:14.616Z,99.90
2019-05-26T19:18:42.706Z,99.90
2019-05-26T19:21:10.036Z,99.90
2019-05-26T19:23:37.404Z,99.90
2019-05-26T19:26:05.076Z,99.90
2019-05-26T19:28:33.759Z,99.90
2019-05-26T19:31:01.312Z,99.90
2019-05-26T19:33:28.902Z,99.90
2019-05-26T19:35:56.225Z,99.90
2019-05-26T19:38:23.535Z,99.90
2019-05-26T19:40:50.879Z,99.90
2019-05-26T19:43:18.185Z,99.90
2019-05-26T19:45:45.502Z,99.90
2019-05-26T19:48:12.894Z,99.90
2019-05-26T19:50:40.317Z,99.90
2019-05-26T19:53:07.627Z,99.90
2019-05-26T19:55:34.914Z,99.90
2019-05-26T19:58:02.295Z,99.90
2019-05-26T20:00:29.672Z,99.90
2019-05-26T20:02:57.830Z,99.90
2019-05-26T20:05:28.376Z,99.90
2019-05-26T20:07:55.776Z,99.90
2019-05-26T20:10:23.379Z,99.90
2019-05-26T20:12:50.836Z,99.90
2019-05-26T20:15:27.247Z,99.90
2019-05-26T20:17:54.836Z,99.90
2019-05-26T20:20:22.274Z,99.90
2019-05-26T20:22:49.702Z,99.90
2019-05-26T20:25:17.509Z,99.90
2019-05-26T20:27:44.983Z,99.90
2019-05-26T20:30:12.702Z,99.90
2019-05-26T20:32:40.184Z,99.90
2019-05-26T20:35:07.888Z,99.90
2019-05-26T20:37:35.441Z,99.90
2019-05-26T20:40:06.502Z,99.90
2019-05-26T20:42:33.957Z,99.90
2019-05-26T20:45:01.400Z,99.90
2019-05-26T20:47:28.826Z,99.90
2019-05-26T20:49:56.286Z,99.90
2019-05-26T20:52:23.855Z,99.90
2019-05-26T20:54:51.386Z,99.90
2019-05-26T20:57:21.653Z,99.90
2019-05-26T20:59:49.232Z,99.90
2019-05-26T21:02:27.896Z,99.90
2019-05-26T21:04:55.439Z,99.90
2019-05-26T21:07:28.844Z,99.90
2019-05-26T21:09:56.216Z,99.90
2019-05-26T21:12:23.663Z,99.90
2019-05-26T21:14:51.133Z,99.90
2019-05-26T21:17:18.364Z,99.90
2019-05-26T21:19:48.130Z,99.90
2019-05-26T21:22:15.418Z,99.90
2019-05-26T21:24:42.877Z,99.90
2019-05-26T21:27:10.131Z,99.90
2019-05-26T21:29:37.535Z,99.90
2019-05-26T21:32:05.146Z,99.90
2019-05-26T21:34:32.655Z,99.90
2019-05-26T21:37:03.953Z,99.90
2019-05-26T21:39:35.312Z,99.90
2019-05-26T21:42:02.705Z,99.90
2019-05-26T21:44:29.979Z,99.90
2019-05-26T21:46:57.526Z,99.90
2019-05-26T21:49:25.083Z,99.90
2019-05-26T21:51:52.509Z,99.90
2019-05-26T21:54:19.830Z,99.90
2019-05-26T21:56:47.074Z,99.90
2019-05-26T21:59:15.810Z,99.90
2019-05-26T22:01:43.857Z,99.90
2019-05-26T22:04:11.492Z,99.90
2019-05-26T22:06:38.912Z,99.90
2019-05-26T22:09:11.308Z,99.90
2019-05-26T22:11:38.699Z,99.90
2019-05-26T22:14:06.318Z,99.90
2019-05-26T22:16:33.615Z,99.90
2019-05-26T22:19:00.910Z,99.90
2019-05-26T22:21:28.418Z,99.90
2019-05-26T22:23:56.802Z,99.90
2019-05-26T22:26:24.247Z,99.90
2019-05-26T22:28:51.627Z,99.90
2019-05-26T22:31:18.943Z,99.90
2019-05-26T22:33:46.236Z,99.90
2019-05-26T22:36:13.497Z,99.90
2019-05-26T22:38:40.825Z,99.90
2019-05-26T22:41:08.101Z,99.90
2019-05-26T22:43:35.339Z,99.90
2019-05-26T22:46:02.584Z,99.90
2019-05-26T22:48:29.864Z,99.90
2019-05-26T22:50:57.218Z,99.90
2019-05-26T22:53:24.574Z,99.90
2019-05-26T22:55:51.817Z,99.90
2019-05-26T22:58:19.152Z,99.90
2019-05-26T23:00:46.467Z,99.90
2019-05-26T23:03:14.145Z,99.90
2019-05-26T23:05:42.668Z,99.90
2019-05-26T23:08:10.180Z,99.90
2019-05-26T23:10:37.627Z,99.90
2019-05-26T23:13:04.995Z,99.90
2019-05-26T23:15:32.360Z,99.90
2019-05-26T23:17:59.610Z,99.90
2019-05-26T23:20:26.842Z,99.90
2019-05-26T23:22:54.084Z,99.90
2019-05-26T23:25:21.451Z,99.90
2019-05-26T23:27:48.695Z,99.90
2019-05-26T23:30:17.231Z,99.90
2019-05-26T23:32:46.803Z,99.90
2019-05-26T23:35:14.283Z,99.90
2019-05-26T23:37:41.626Z,99.90
2019-05-26T23:40:08.914Z,99.90
2019-05-26T23:42:36.272Z,99.90
2019-05-26T23:45:05.675Z,99.90
2019-05-26T23:47:32.918Z,99.90
2019-05-26T23:50:00.219Z,99.90
2019-05-26T23:52:27.451Z,99.90
2019-05-26T23:54:54.751Z,99.90
2019-05-26T23:57:22.099Z,99.90
2019-05-26T23:59:49.359Z,99.90
